sensor_id;sensor_type;location;lat;lon;timestamp;temperature;humidity
55719;DHT22;41623;46.104;19.656;2022-07-23T00:00:39;742.90;1024.00
55719;DHT22;41623;46.104;19.656;2022-07-23T00:03:06;742.90;1024.00
55719;DHT22;41623;46.104;19.656;2022-07-23T00:05:32;742.90;1024.00
55719;DHT22;41623;46.104;19.656;2022-07-23T00:07:58;743.00;1024.00
55719;DHT22;41623;46.104;19.656;2022-07-23T00:10:23;743.00;1024.00
55719;DHT22;41623;46.104;19.656;2022-07-23T00:12:49;743.00;1024.00
55719;DHT22;41623;46.104;19.656;2022-07-23T00:15:15;743.00;947.20
55719;DHT22;41623;46.104;19.656;2022-07-23T00:17:42;743.00;998.40
55719;DHT22;41623;46.104;19.656;2022-07-23T00:20:08;743.00;1024.00
55719;DHT22;41623;46.104;19.656;2022-07-23T00:22:34;743.00;1024.00
55719;DHT22;41623;46.104;19.656;2022-07-23T00:25:02;743.00;1024.00
55719;DHT22;41623;46.104;19.656;2022-07-23T00:27:28;743.10;1024.00
55719;DHT22;41623;46.104;19.656;2022-07-23T00:29:55;743.00;1024.00
55719;DHT22;41623;46.104;19.656;2022-07-23T00:32:21;743.10;1024.00
55719;DHT22;41623;46.104;19.656;2022-07-23T00:34:46;743.10;1049.60
55719;DHT22;41623;46.104;19.656;2022-07-23T00:37:13;743.10;1024.00
55719;DHT22;41623;46.104;19.656;2022-07-23T00:39:39;743.10;1024.00
55719;DHT22;41623;46.104;19.656;2022-07-23T00:42:05;743.10;1024.00
55719;DHT22;41623;46.104;19.656;2022-07-23T00:44:31;743.10;998.40
55719;DHT22;41623;46.104;19.656;2022-07-23T00:46:58;743.10;998.40
55719;DHT22;41623;46.104;19.656;2022-07-23T00:49:26;743.10;998.40
55719;DHT22;41623;46.104;19.656;2022-07-23T00:51:53;743.10;998.40
55719;DHT22;41623;46.104;19.656;2022-07-23T00:54:21;743.10;998.40
55719;DHT22;41623;46.104;19.656;2022-07-23T00:56:52;743.10;998.40
55719;DHT22;41623;46.104;19.656;2022-07-23T00:59:18;743.10;998.40
55719;DHT22;41623;46.104;19.656;2022-07-23T01:01:44;743.10;1024.00
55719;DHT22;41623;46.104;19.656;2022-07-23T01:04:11;743.10;1024.00
55719;DHT22;41623;46.104;19.656;2022-07-23T01:06:37;743.10;998.40
55719;DHT22;41623;46.104;19.656;2022-07-23T01:09:05;743.10;972.80
55719;DHT22;41623;46.104;19.656;2022-07-23T01:11:34;743.10;972.80
55719;DHT22;41623;46.104;19.656;2022-07-23T01:14:08;743.10;972.80
55719;DHT22;41623;46.104;19.656;2022-07-23T01:16:34;743.10;972.80
55719;DHT22;41623;46.104;19.656;2022-07-23T01:18:59;743.10;972.80
55719;DHT22;41623;46.104;19.656;2022-07-23T01:21:25;743.10;998.40
55719;DHT22;41623;46.104;19.656;2022-07-23T01:23:51;743.00;972.80
55719;DHT22;41623;46.104;19.656;2022-07-23T01:26:17;743.00;972.80
55719;DHT22;41623;46.104;19.656;2022-07-23T01:28:44;743.00;972.80
55719;DHT22;41623;46.104;19.656;2022-07-23T01:31:10;743.00;972.80
55719;DHT22;41623;46.104;19.656;2022-07-23T01:33:35;743.00;1024.00
55719;DHT22;41623;46.104;19.656;2022-07-23T01:36:01;742.90;998.40
55719;DHT22;41623;46.104;19.656;2022-07-23T01:38:27;742.90;998.40
55719;DHT22;41623;46.104;19.656;2022-07-23T01:40:53;742.90;947.20
55719;DHT22;41623;46.104;19.656;2022-07-23T01:43:19;743.00;947.20
55719;DHT22;41623;46.104;19.656;2022-07-23T01:45:44;742.90;998.40
55719;DHT22;41623;46.104;19.656;2022-07-23T01:48:10;742.90;998.40
55719;DHT22;41623;46.104;19.656;2022-07-23T01:50:39;742.80;972.80
55719;DHT22;41623;46.104;19.656;2022-07-23T01:53:04;742.80;972.80
55719;DHT22;41623;46.104;19.656;2022-07-23T01:55:30;742.70;972.80
55719;DHT22;41623;46.104;19.656;2022-07-23T01:57:56;742.70;998.40
55719;DHT22;41623;46.104;19.656;2022-07-23T02:00:22;742.60;1024.00
55719;DHT22;41623;46.104;19.656;2022-07-23T02:02:48;742.60;998.40
55719;DHT22;41623;46.104;19.656;2022-07-23T02:05:13;742.70;947.20
55719;DHT22;41623;46.104;19.656;2022-07-23T02:07:39;742.60;998.40
55719;DHT22;41623;46.104;19.656;2022-07-23T02:10:06;742.70;1024.00
55719;DHT22;41623;46.104;19.656;2022-07-23T02:12:31;742.70;972.80
55719;DHT22;41623;46.104;19.656;2022-07-23T02:14:57;742.80;998.40
55719;DHT22;41623;46.104;19.656;2022-07-23T02:17:23;742.70;972.80
55719;DHT22;41623;46.104;19.656;2022-07-23T02:19:49;742.60;998.40
55719;DHT22;41623;46.104;19.656;2022-07-23T02:22:16;742.60;998.40
55719;DHT22;41623;46.104;19.656;2022-07-23T02:24:41;742.60;972.80
55719;DHT22;41623;46.104;19.656;2022-07-23T02:27:07;742.50;947.20
55719;DHT22;41623;46.104;19.656;2022-07-23T02:29:33;742.40;998.40
55719;DHT22;41623;46.104;19.656;2022-07-23T02:31:58;742.40;998.40
55719;DHT22;41623;46.104;19.656;2022-07-23T02:34:24;742.40;972.80
55719;DHT22;41623;46.104;19.656;2022-07-23T02:36:50;742.40;972.80
55719;DHT22;41623;46.104;19.656;2022-07-23T02:39:16;717.60;947.20
55719;DHT22;41623;46.104;19.656;2022-07-23T02:41:41;717.50;972.80
55719;DHT22;41623;46.104;19.656;2022-07-23T02:44:07;717.50;972.80
55719;DHT22;41623;46.104;19.656;2022-07-23T02:46:33;717.50;972.80
55719;DHT22;41623;46.104;19.656;2022-07-23T02:48:59;717.50;972.80
55719;DHT22;41623;46.104;19.656;2022-07-23T02:51:24;717.50;972.80
55719;DHT22;41623;46.104;19.656;2022-07-23T02:53:50;717.50;972.80
55719;DHT22;41623;46.104;19.656;2022-07-23T02:56:16;717.50;947.20
55719;DHT22;41623;46.104;19.656;2022-07-23T02:58:42;717.50;972.80
55719;DHT22;41623;46.104;19.656;2022-07-23T03:01:08;717.60;947.20
55719;DHT22;41623;46.104;19.656;2022-07-23T03:03:33;717.60;972.80
55719;DHT22;41623;46.104;19.656;2022-07-23T03:05:59;717.70;972.80
55719;DHT22;41623;46.104;19.656;2022-07-23T03:08:25;717.60;947.20
55719;DHT22;41623;46.104;19.656;2022-07-23T03:10:51;717.60;947.20
55719;DHT22;41623;46.104;19.656;2022-07-23T03:13:17;717.50;972.80
55719;DHT22;41623;46.104;19.656;2022-07-23T03:15:42;717.60;972.80
55719;DHT22;41623;46.104;19.656;2022-07-23T03:18:08;717.60;972.80
55719;DHT22;41623;46.104;19.656;2022-07-23T03:20:34;717.70;998.40
55719;DHT22;41623;46.104;19.656;2022-07-23T03:23:00;717.70;972.80
55719;DHT22;41623;46.104;19.656;2022-07-23T03:25:25;742.40;1049.60
55719;DHT22;41623;46.104;19.656;2022-07-23T03:27:51;742.40;1049.60
55719;DHT22;41623;46.104;19.656;2022-07-23T03:30:17;742.40;1049.60
55719;DHT22;41623;46.104;19.656;2022-07-23T03:32:43;742.50;1049.60
55719;DHT22;41623;46.104;19.656;2022-07-23T03:35:09;742.50;1024.00
55719;DHT22;41623;46.104;19.656;2022-07-23T03:37:35;742.50;1024.00
55719;DHT22;41623;46.104;19.656;2022-07-23T03:40:01;742.60;1024.00
55719;DHT22;41623;46.104;19.656;2022-07-23T03:42:27;742.60;1024.00
55719;DHT22;41623;46.104;19.656;2022-07-23T03:44:58;742.60;1024.00
55719;DHT22;41623;46.104;19.656;2022-07-23T03:47:24;742.50;1024.00
55719;DHT22;41623;46.104;19.656;2022-07-23T03:49:50;742.50;1024.00
55719;DHT22;41623;46.104;19.656;2022-07-23T03:52:15;742.50;998.40
55719;DHT22;41623;46.104;19.656;2022-07-23T03:54:41;742.50;998.40
55719;DHT22;41623;46.104;19.656;2022-07-23T03:57:07;742.50;998.40
55719;DHT22;41623;46.104;19.656;2022-07-23T03:59:33;742.50;998.40
55719;DHT22;41623;46.104;19.656;2022-07-23T04:01:59;742.50;1024.00
55719;DHT22;41623;46.104;19.656;2022-07-23T04:04:26;742.50;998.40
55719;DHT22;41623;46.104;19.656;2022-07-23T04:06:51;742.50;1024.00
55719;DHT22;41623;46.104;19.656;2022-07-23T04:09:17;742.40;1024.00
55719;DHT22;41623;46.104;19.656;2022-07-23T04:11:43;742.40;1024.00
55719;DHT22;41623;46.104;19.656;2022-07-23T04:14:09;742.40;1024.00
55719;DHT22;41623;46.104;19.656;2022-07-23T04:16:35;742.40;1024.00
55719;DHT22;41623;46.104;19.656;2022-07-23T04:19:01;742.40;1024.00
55719;DHT22;41623;46.104;19.656;2022-07-23T04:21:27;742.40;1024.00
55719;DHT22;41623;46.104;19.656;2022-07-23T04:23:52;742.50;1024.00
55719;DHT22;41623;46.104;19.656;2022-07-23T04:26:18;742.50;1024.00
55719;DHT22;41623;46.104;19.656;2022-07-23T04:28:45;742.50;1024.00
55719;DHT22;41623;46.104;19.656;2022-07-23T04:31:10;742.50;1024.00
55719;DHT22;41623;46.104;19.656;2022-07-23T04:33:37;742.60;1024.00
55719;DHT22;41623;46.104;19.656;2022-07-23T04:36:03;742.60;1024.00
55719;DHT22;41623;46.104;19.656;2022-07-23T04:38:29;742.60;1024.00
55719;DHT22;41623;46.104;19.656;2022-07-23T04:40:54;742.60;1024.00
55719;DHT22;41623;46.104;19.656;2022-07-23T04:43:21;742.60;1024.00
55719;DHT22;41623;46.104;19.656;2022-07-23T04:45:47;742.60;1024.00
55719;DHT22;41623;46.104;19.656;2022-07-23T04:48:14;742.70;1024.00
55719;DHT22;41623;46.104;19.656;2022-07-23T04:50:39;742.60;1024.00
55719;DHT22;41623;46.104;19.656;2022-07-23T04:53:05;742.70;1024.00
55719;DHT22;41623;46.104;19.656;2022-07-23T04:55:31;742.70;1024.00
55719;DHT22;41623;46.104;19.656;2022-07-23T04:57:57;742.70;1024.00
55719;DHT22;41623;46.104;19.656;2022-07-23T05:00:23;742.70;1024.00
55719;DHT22;41623;46.104;19.656;2022-07-23T05:02:49;742.70;1024.00
55719;DHT22;41623;46.104;19.656;2022-07-23T05:05:15;742.80;1024.00
55719;DHT22;41623;46.104;19.656;2022-07-23T05:07:40;742.80;998.40
55719;DHT22;41623;46.104;19.656;2022-07-23T05:10:06;742.80;998.40
55719;DHT22;41623;46.104;19.656;2022-07-23T05:12:32;742.80;1024.00
55719;DHT22;41623;46.104;19.656;2022-07-23T05:14:58;742.80;1024.00
55719;DHT22;41623;46.104;19.656;2022-07-23T05:17:25;742.80;1024.00
55719;DHT22;41623;46.104;19.656;2022-07-23T05:19:51;742.80;1024.00
55719;DHT22;41623;46.104;19.656;2022-07-23T05:22:17;742.80;1024.00
55719;DHT22;41623;46.104;19.656;2022-07-23T05:24:42;742.90;1024.00
55719;DHT22;41623;46.104;19.656;2022-07-23T05:27:08;742.80;1024.00
55719;DHT22;41623;46.104;19.656;2022-07-23T05:29:34;742.80;1024.00
55719;DHT22;41623;46.104;19.656;2022-07-23T05:32:00;742.80;1024.00
55719;DHT22;41623;46.104;19.656;2022-07-23T05:34:26;742.80;1024.00
55719;DHT22;41623;46.104;19.656;2022-07-23T05:36:51;742.90;1024.00
55719;DHT22;41623;46.104;19.656;2022-07-23T05:39:17;742.90;1024.00
55719;DHT22;41623;46.104;19.656;2022-07-23T05:41:43;742.90;1024.00
55719;DHT22;41623;46.104;19.656;2022-07-23T05:44:09;742.90;1024.00
55719;DHT22;41623;46.104;19.656;2022-07-23T05:46:35;742.90;1024.00
55719;DHT22;41623;46.104;19.656;2022-07-23T05:49:01;742.90;1024.00
55719;DHT22;41623;46.104;19.656;2022-07-23T05:51:27;742.90;1024.00
55719;DHT22;41623;46.104;19.656;2022-07-23T05:53:53;742.90;1024.00
55719;DHT22;41623;46.104;19.656;2022-07-23T05:56:19;742.90;1024.00
55719;DHT22;41623;46.104;19.656;2022-07-23T05:58:45;742.90;1024.00
55719;DHT22;41623;46.104;19.656;2022-07-23T06:01:11;743.00;1024.00
55719;DHT22;41623;46.104;19.656;2022-07-23T06:03:39;742.90;1024.00
55719;DHT22;41623;46.104;19.656;2022-07-23T06:06:06;742.90;1024.00
55719;DHT22;41623;46.104;19.656;2022-07-23T06:08:32;742.90;998.40
55719;DHT22;41623;46.104;19.656;2022-07-23T06:10:58;742.90;1024.00
55719;DHT22;41623;46.104;19.656;2022-07-23T06:13:24;742.90;1024.00
55719;DHT22;41623;46.104;19.656;2022-07-23T06:15:55;743.00;1024.00
55719;DHT22;41623;46.104;19.656;2022-07-23T06:18:24;743.00;1024.00
55719;DHT22;41623;46.104;19.656;2022-07-23T06:20:50;743.00;1049.60
55719;DHT22;41623;46.104;19.656;2022-07-23T06:23:16;743.00;1075.20
55719;DHT22;41623;46.104;19.656;2022-07-23T06:25:43;743.00;1049.60
55719;DHT22;41623;46.104;19.656;2022-07-23T06:28:09;743.00;1075.20
55719;DHT22;41623;46.104;19.656;2022-07-23T06:30:34;743.00;1075.20
55719;DHT22;41623;46.104;19.656;2022-07-23T06:33:00;743.00;1075.20
55719;DHT22;41623;46.104;19.656;2022-07-23T06:35:27;743.00;1075.20
55719;DHT22;41623;46.104;19.656;2022-07-23T06:37:53;743.00;1075.20
55719;DHT22;41623;46.104;19.656;2022-07-23T06:40:18;743.00;1075.20
55719;DHT22;41623;46.104;19.656;2022-07-23T06:42:45;743.00;1100.80
55719;DHT22;41623;46.104;19.656;2022-07-23T06:45:11;743.00;1075.20
55719;DHT22;41623;46.104;19.656;2022-07-23T06:47:37;743.00;1075.20
55719;DHT22;41623;46.104;19.656;2022-07-23T06:50:05;743.00;1100.80
55719;DHT22;41623;46.104;19.656;2022-07-23T06:52:31;743.00;1100.80
55719;DHT22;41623;46.104;19.656;2022-07-23T06:54:56;743.00;1075.20
55719;DHT22;41623;46.104;19.656;2022-07-23T06:57:22;743.00;1100.80
55719;DHT22;41623;46.104;19.656;2022-07-23T06:59:51;743.00;1075.20
55719;DHT22;41623;46.104;19.656;2022-07-23T07:02:17;743.00;1100.80
55719;DHT22;41623;46.104;19.656;2022-07-23T07:04:43;743.00;1075.20
55719;DHT22;41623;46.104;19.656;2022-07-23T07:07:10;743.00;1100.80
55719;DHT22;41623;46.104;19.656;2022-07-23T07:09:35;743.10;1075.20
55719;DHT22;41623;46.104;19.656;2022-07-23T07:12:02;743.10;1075.20
55719;DHT22;41623;46.104;19.656;2022-07-23T07:14:28;743.10;1100.80
55719;DHT22;41623;46.104;19.656;2022-07-23T07:16:54;743.10;1100.80
55719;DHT22;41623;46.104;19.656;2022-07-23T07:19:21;743.00;1100.80
55719;DHT22;41623;46.104;19.656;2022-07-23T07:21:47;743.10;1075.20
55719;DHT22;41623;46.104;19.656;2022-07-23T07:24:13;743.10;1075.20
55719;DHT22;41623;46.104;19.656;2022-07-23T07:26:39;743.10;1075.20
55719;DHT22;41623;46.104;19.656;2022-07-23T07:29:05;743.00;1075.20
55719;DHT22;41623;46.104;19.656;2022-07-23T07:31:32;743.00;1075.20
55719;DHT22;41623;46.104;19.656;2022-07-23T07:33:58;743.10;1075.20
55719;DHT22;41623;46.104;19.656;2022-07-23T07:36:24;743.10;1049.60
55719;DHT22;41623;46.104;19.656;2022-07-23T07:38:50;743.10;1049.60
55719;DHT22;41623;46.104;19.656;2022-07-23T07:41:16;743.10;1049.60
55719;DHT22;41623;46.104;19.656;2022-07-23T07:43:42;743.10;1049.60
55719;DHT22;41623;46.104;19.656;2022-07-23T07:46:07;743.00;1049.60
55719;DHT22;41623;46.104;19.656;2022-07-23T07:48:37;743.00;1049.60
55719;DHT22;41623;46.104;19.656;2022-07-23T07:51:04;743.10;1049.60
55719;DHT22;41623;46.104;19.656;2022-07-23T07:53:30;743.00;1049.60
55719;DHT22;41623;46.104;19.656;2022-07-23T07:55:56;743.00;1049.60
55719;DHT22;41623;46.104;19.656;2022-07-23T07:58:22;743.10;1049.60
55719;DHT22;41623;46.104;19.656;2022-07-23T08:00:47;743.00;1049.60
55719;DHT22;41623;46.104;19.656;2022-07-23T08:03:14;743.00;1049.60
55719;DHT22;41623;46.104;19.656;2022-07-23T08:05:40;743.00;1049.60
55719;DHT22;41623;46.104;19.656;2022-07-23T08:08:06;743.00;1049.60
55719;DHT22;41623;46.104;19.656;2022-07-23T08:10:32;743.00;1049.60
55719;DHT22;41623;46.104;19.656;2022-07-23T08:12:58;743.00;1049.60
55719;DHT22;41623;46.104;19.656;2022-07-23T08:15:27;743.00;1049.60
55719;DHT22;41623;46.104;19.656;2022-07-23T08:17:53;743.00;1049.60
55719;DHT22;41623;46.104;19.656;2022-07-23T08:20:20;743.00;1024.00
55719;DHT22;41623;46.104;19.656;2022-07-23T08:22:53;743.00;1024.00
55719;DHT22;41623;46.104;19.656;2022-07-23T08:25:20;743.00;1024.00
55719;DHT22;41623;46.104;19.656;2022-07-23T08:27:46;743.00;1049.60
55719;DHT22;41623;46.104;19.656;2022-07-23T08:30:13;743.00;1024.00
55719;DHT22;41623;46.104;19.656;2022-07-23T08:32:53;743.00;1024.00
55719;DHT22;41623;46.104;19.656;2022-07-23T08:35:33;743.00;1024.00
55719;DHT22;41623;46.104;19.656;2022-07-23T08:38:03;743.00;1024.00
55719;DHT22;41623;46.104;19.656;2022-07-23T08:40:33;743.10;1024.00
55719;DHT22;41623;46.104;19.656;2022-07-23T08:42:59;743.10;1024.00
55719;DHT22;41623;46.104;19.656;2022-07-23T08:45:26;743.00;1024.00
55719;DHT22;41623;46.104;19.656;2022-07-23T08:47:57;743.00;1024.00
55719;DHT22;41623;46.104;19.656;2022-07-23T08:53:48;743.10;1024.00
55719;DHT22;41623;46.104;19.656;2022-07-23T08:56:14;743.10;1024.00
55719;DHT22;41623;46.104;19.656;2022-07-23T08:58:39;743.10;1024.00
55719;DHT22;41623;46.104;19.656;2022-07-23T09:01:05;743.10;1024.00
55719;DHT22;41623;46.104;19.656;2022-07-23T09:03:33;743.10;1024.00
55719;DHT22;41623;46.104;19.656;2022-07-23T09:06:00;743.10;1024.00
55719;DHT22;41623;46.104;19.656;2022-07-23T09:08:38;743.10;1024.00
55719;DHT22;41623;46.104;19.656;2022-07-23T09:11:06;743.10;1024.00
55719;DHT22;41623;46.104;19.656;2022-07-23T09:13:46;743.10;1024.00
55719;DHT22;41623;46.104;19.656;2022-07-23T09:21:27;743.10;998.40
55719;DHT22;41623;46.104;19.656;2022-07-23T09:27:15;743.10;998.40
55719;DHT22;41623;46.104;19.656;2022-07-23T09:33:04;743.10;998.40
55719;DHT22;41623;46.104;19.656;2022-07-23T09:38:14;743.10;998.40
55719;DHT22;41623;46.104;19.656;2022-07-23T09:40:39;743.10;998.40
55719;DHT22;41623;46.104;19.656;2022-07-23T09:43:06;743.10;998.40
55719;DHT22;41623;46.104;19.656;2022-07-23T09:45:31;743.10;998.40
55719;DHT22;41623;46.104;19.656;2022-07-23T09:48:14;743.10;998.40
55719;DHT22;41623;46.104;19.656;2022-07-23T09:50:44;743.10;998.40
55719;DHT22;41623;46.104;19.656;2022-07-23T09:53:23;743.10;998.40
55719;DHT22;41623;46.104;19.656;2022-07-23T09:55:51;743.10;998.40
55719;DHT22;41623;46.104;19.656;2022-07-23T09:58:20;743.10;998.40
55719;DHT22;41623;46.104;19.656;2022-07-23T10:00:48;743.10;972.80
55719;DHT22;41623;46.104;19.656;2022-07-23T10:03:15;743.10;998.40
55719;DHT22;41623;46.104;19.656;2022-07-23T10:05:44;743.10;972.80
55719;DHT22;41623;46.104;19.656;2022-07-23T10:08:11;743.10;972.80
55719;DHT22;41623;46.104;19.656;2022-07-23T10:10:40;743.10;972.80
55719;DHT22;41623;46.104;19.656;2022-07-23T10:13:08;743.10;972.80
55719;DHT22;41623;46.104;19.656;2022-07-23T10:15:41;743.10;972.80
55719;DHT22;41623;46.104;19.656;2022-07-23T10:18:10;743.10;972.80
55719;DHT22;41623;46.104;19.656;2022-07-23T10:20:36;743.10;972.80
55719;DHT22;41623;46.104;19.656;2022-07-23T10:23:14;743.10;972.80
55719;DHT22;41623;46.104;19.656;2022-07-23T10:26:23;743.10;972.80
55719;DHT22;41623;46.104;19.656;2022-07-23T10:34:59;743.10;947.20
55719;DHT22;41623;46.104;19.656;2022-07-23T10:37:38;743.10;972.80
55719;DHT22;41623;46.104;19.656;2022-07-23T10:40:18;743.10;947.20
55719;DHT22;41623;46.104;19.656;2022-07-23T10:42:51;743.10;947.20
55719;DHT22;41623;46.104;19.656;2022-07-23T10:48:13;743.10;947.20
55719;DHT22;41623;46.104;19.656;2022-07-23T10:50:40;743.20;947.20
55719;DHT22;41623;46.104;19.656;2022-07-23T10:53:11;743.20;947.20
55719;DHT22;41623;46.104;19.656;2022-07-23T10:55:42;743.20;947.20
55719;DHT22;41623;46.104;19.656;2022-07-23T10:58:08;743.20;947.20
55719;DHT22;41623;46.104;19.656;2022-07-23T11:00:36;743.20;947.20
55719;DHT22;41623;46.104;19.656;2022-07-23T11:03:05;743.20;947.20
55719;DHT22;41623;46.104;19.656;2022-07-23T11:05:45;743.20;947.20
55719;DHT22;41623;46.104;19.656;2022-07-23T11:08:19;743.20;947.20
55719;DHT22;41623;46.104;19.656;2022-07-23T11:18:54;743.20;947.20
55719;DHT22;41623;46.104;19.656;2022-07-23T11:24:11;743.10;921.60
55719;DHT22;41623;46.104;19.656;2022-07-23T11:34:45;743.20;921.60
55719;DHT22;41623;46.104;19.656;2022-07-23T11:37:38;743.30;921.60
55719;DHT22;41623;46.104;19.656;2022-07-23T11:40:16;743.30;896.00
55719;DHT22;41623;46.104;19.656;2022-07-23T11:45:19;743.30;921.60
55719;DHT22;41623;46.104;19.656;2022-07-23T11:47:45;743.20;921.60
55719;DHT22;41623;46.104;19.656;2022-07-23T11:50:11;743.30;921.60
55719;DHT22;41623;46.104;19.656;2022-07-23T11:52:36;743.30;921.60
55719;DHT22;41623;46.104;19.656;2022-07-23T11:55:08;743.30;896.00
55719;DHT22;41623;46.104;19.656;2022-07-23T11:57:39;743.30;921.60
55719;DHT22;41623;46.104;19.656;2022-07-23T12:00:11;743.30;921.60
55719;DHT22;41623;46.104;19.656;2022-07-23T12:02:43;743.30;921.60
55719;DHT22;41623;46.104;19.656;2022-07-23T12:05:15;743.30;921.60
55719;DHT22;41623;46.104;19.656;2022-07-23T12:07:43;743.30;921.60
55719;DHT22;41623;46.104;19.656;2022-07-23T12:12:49;743.30;921.60
55719;DHT22;41623;46.104;19.656;2022-07-23T12:15:18;743.30;921.60
55719;DHT22;41623;46.104;19.656;2022-07-23T12:17:46;743.30;921.60
55719;DHT22;41623;46.104;19.656;2022-07-23T12:20:15;743.30;921.60
55719;DHT22;41623;46.104;19.656;2022-07-23T12:22:44;743.30;921.60
55719;DHT22;41623;46.104;19.656;2022-07-23T12:25:16;743.30;921.60
55719;DHT22;41623;46.104;19.656;2022-07-23T12:27:42;743.30;921.60
55719;DHT22;41623;46.104;19.656;2022-07-23T12:32:50;743.30;896.00
55719;DHT22;41623;46.104;19.656;2022-07-23T12:35:16;743.30;921.60
55719;DHT22;41623;46.104;19.656;2022-07-23T12:37:44;743.30;896.00
55719;DHT22;41623;46.104;19.656;2022-07-23T12:40:32;743.30;896.00
55719;DHT22;41623;46.104;19.656;2022-07-23T12:43:02;743.30;896.00
55719;DHT22;41623;46.104;19.656;2022-07-23T12:45:45;743.30;870.40
55719;DHT22;41623;46.104;19.656;2022-07-23T12:48:22;743.30;896.00
55719;DHT22;41623;46.104;19.656;2022-07-23T12:51:00;743.30;896.00
55719;DHT22;41623;46.104;19.656;2022-07-23T12:53:37;743.30;896.00
55719;DHT22;41623;46.104;19.656;2022-07-23T12:56:16;743.30;870.40
55719;DHT22;41623;46.104;19.656;2022-07-23T13:04:07;743.30;896.00
55719;DHT22;41623;46.104;19.656;2022-07-23T13:06:42;743.30;896.00
55719;DHT22;41623;46.104;19.656;2022-07-23T13:09:11;743.30;896.00
55719;DHT22;41623;46.104;19.656;2022-07-23T13:11:38;743.30;896.00
55719;DHT22;41623;46.104;19.656;2022-07-23T13:14:04;743.30;870.40
55719;DHT22;41623;46.104;19.656;2022-07-23T13:16:31;743.30;870.40
55719;DHT22;41623;46.104;19.656;2022-07-23T13:18:58;768.00;870.40
55719;DHT22;41623;46.104;19.656;2022-07-23T13:21:25;743.30;896.00
55719;DHT22;41623;46.104;19.656;2022-07-23T13:23:51;743.30;870.40
55719;DHT22;41623;46.104;19.656;2022-07-23T13:26:17;768.10;870.40
55719;DHT22;41623;46.104;19.656;2022-07-23T13:28:43;768.10;870.40
55719;DHT22;41623;46.104;19.656;2022-07-23T13:31:11;768.10;844.80
55719;DHT22;41623;46.104;19.656;2022-07-23T13:33:37;768.10;844.80
55719;DHT22;41623;46.104;19.656;2022-07-23T13:36:03;768.10;896.00
55719;DHT22;41623;46.104;19.656;2022-07-23T13:38:29;768.10;870.40
55719;DHT22;41623;46.104;19.656;2022-07-23T13:40:55;768.10;870.40
55719;DHT22;41623;46.104;19.656;2022-07-23T13:43:23;768.10;870.40
55719;DHT22;41623;46.104;19.656;2022-07-23T13:45:50;768.10;870.40
55719;DHT22;41623;46.104;19.656;2022-07-23T13:48:17;768.10;870.40
55719;DHT22;41623;46.104;19.656;2022-07-23T13:50:44;768.10;870.40
55719;DHT22;41623;46.104;19.656;2022-07-23T13:53:13;768.10;870.40
55719;DHT22;41623;46.104;19.656;2022-07-23T13:55:40;768.10;870.40
55719;DHT22;41623;46.104;19.656;2022-07-23T13:58:06;768.10;870.40
55719;DHT22;41623;46.104;19.656;2022-07-23T14:00:35;768.10;870.40
55719;DHT22;41623;46.104;19.656;2022-07-23T14:03:01;768.10;870.40
55719;DHT22;41623;46.104;19.656;2022-07-23T14:05:27;768.10;870.40
55719;DHT22;41623;46.104;19.656;2022-07-23T14:07:53;768.10;870.40
55719;DHT22;41623;46.104;19.656;2022-07-23T14:10:21;768.10;870.40
55719;DHT22;41623;46.104;19.656;2022-07-23T14:12:48;768.10;870.40
55719;DHT22;41623;46.104;19.656;2022-07-23T14:15:14;768.10;870.40
55719;DHT22;41623;46.104;19.656;2022-07-23T14:17:41;768.10;870.40
55719;DHT22;41623;46.104;19.656;2022-07-23T14:20:09;768.10;870.40
55719;DHT22;41623;46.104;19.656;2022-07-23T14:22:35;768.10;870.40
55719;DHT22;41623;46.104;19.656;2022-07-23T14:25:01;768.10;870.40
55719;DHT22;41623;46.104;19.656;2022-07-23T14:27:29;768.00;870.40
55719;DHT22;41623;46.104;19.656;2022-07-23T14:29:55;768.10;870.40
55719;DHT22;41623;46.104;19.656;2022-07-23T14:32:21;768.10;870.40
55719;DHT22;41623;46.104;19.656;2022-07-23T14:34:48;768.10;870.40
55719;DHT22;41623;46.104;19.656;2022-07-23T14:37:14;768.10;870.40
55719;DHT22;41623;46.104;19.656;2022-07-23T14:39:41;768.10;870.40
55719;DHT22;41623;46.104;19.656;2022-07-23T14:42:08;768.10;844.80
55719;DHT22;41623;46.104;19.656;2022-07-23T14:44:35;768.10;844.80
55719;DHT22;41623;46.104;19.656;2022-07-23T14:47:02;768.10;844.80
55719;DHT22;41623;46.104;19.656;2022-07-23T14:49:29;768.10;870.40
55719;DHT22;41623;46.104;19.656;2022-07-23T14:51:54;768.10;844.80
55719;DHT22;41623;46.104;19.656;2022-07-23T14:54:20;768.10;844.80
55719;DHT22;41623;46.104;19.656;2022-07-23T14:56:46;768.10;844.80
55719;DHT22;41623;46.104;19.656;2022-07-23T14:59:13;768.10;844.80
55719;DHT22;41623;46.104;19.656;2022-07-23T15:01:39;768.10;844.80
55719;DHT22;41623;46.104;19.656;2022-07-23T15:04:07;768.10;844.80
55719;DHT22;41623;46.104;19.656;2022-07-23T15:06:33;768.20;819.20
55719;DHT22;41623;46.104;19.656;2022-07-23T15:08:59;768.20;819.20
55719;DHT22;41623;46.104;19.656;2022-07-23T15:11:27;768.20;844.80
55719;DHT22;41623;46.104;19.656;2022-07-23T15:13:54;768.10;844.80
55719;DHT22;41623;46.104;19.656;2022-07-23T15:16:20;768.10;844.80
55719;DHT22;41623;46.104;19.656;2022-07-23T15:18:46;768.10;870.40
55719;DHT22;41623;46.104;19.656;2022-07-23T15:21:13;768.10;844.80
55719;DHT22;41623;46.104;19.656;2022-07-23T15:23:39;768.10;844.80
55719;DHT22;41623;46.104;19.656;2022-07-23T15:26:06;768.10;844.80
55719;DHT22;41623;46.104;19.656;2022-07-23T15:28:33;768.10;844.80
55719;DHT22;41623;46.104;19.656;2022-07-23T15:30:59;768.10;844.80
55719;DHT22;41623;46.104;19.656;2022-07-23T15:33:25;768.20;844.80
55719;DHT22;41623;46.104;19.656;2022-07-23T15:35:51;768.10;870.40
55719;DHT22;41623;46.104;19.656;2022-07-23T15:38:18;768.20;870.40
55719;DHT22;41623;46.104;19.656;2022-07-23T15:40:44;768.10;870.40
55719;DHT22;41623;46.104;19.656;2022-07-23T15:43:10;768.10;844.80